Friday, July 20, 2018, 8:54 AM GMT
Back to Local

CWKG, Kejimkujik 1, N. S.

Location: , , Canada Lat: 44.433
Local Time: 8:54 AM GMT ( 8:54 GMT) Lon: -65.2
Time Zone: GMT Elev: 416 ft

Show me the last for .
Show Coded

Time T Td Feel RH Dir Speed Gust Alt SLP Vis Weather Sky Remarks
2018-07-20 08:00 49 45 - 86 350° 1 - - 30.15 0 None
2018-07-20 07:00 49 47 - 92 350° 1 - - 30.14 0 None
2018-07-20 06:00 52 47 - 82 330° 2 - - 30.13 0 None
2018-07-20 05:00 54 47 - 78 330° 2 - - 30.13 0 None
2018-07-20 04:00 56 48 - 74 340° 1 - - 30.12 0 None
2018-07-20 03:00 58 50 - 74 360° 2 - - 30.11 0 None
2018-07-20 02:00 60 51 - 71 310° 1 - - 30.10 0 None
2018-07-20 01:00 63 50 - 61 330° 2 - - 30.07 0 None
2018-07-20 00:00 67 49 - 52 340° 2 - - 30.05 0 None
2018-07-19 23:00 71 49 76 45 350° 2 - - 30.03 0 None
2018-07-19 22:00 75 50 77 40 340° 3 - - 30.01 0 None
2018-07-19 21:00 76 52 77 42 350° 5 - - 30.01 0 None
2018-07-19 20:00 79 50 - 36 340° 7 - - 29.99 0 None
2018-07-19 19:00 80 54 80 40 280° 3 - - 29.98 0 None
2018-07-19 18:00 76 52 77 42 40° 3 - - 29.98 0 None
2018-07-19 17:00 77 52 78 41 70° 2 - - 29.99 0 None
2018-07-19 16:00 76 55 78 47 330° 3 - - 29.98 0 None
2018-07-19 15:00 74 59 77 58 160° 2 - - 29.98 0 None
2018-07-19 14:00 73 59 77 61 60° 3 - - 29.98 0 None
2018-07-19 13:00 70 56 76 61 50° 2 - - 29.97 0 None
2018-07-19 12:00 66 57 - 71 40° 3 - - 29.96 0 None
2018-07-19 11:00 59 55 - 87 350° 2 - - 29.95 0 None
2018-07-19 10:00 52 50 - 92 330° 1 - - 29.93 0 None
2018-07-19 09:00 52 50 - 91 340° 2 - - 29.92 0 None

Support USWX by starting your Amazon purchase here.